Bicycle Lake Army Air Field


Codes: KBYS/BYS
Name: Bicycle Lake Army Air Field
City: Fort Irwin/Barstow
Country: United States
Elevation: 2350 ft.
Wikipedia:

Photos at Bicycle Lake Army Air Field


   Photos courtesy of SpottingLog. You can add your own sightings and photos by signing up for a free trial today.



No photos found.

Weather at Bicycle Lake Army Air Field


Time (UTC)DescriptionTempratureWindCloud coverageVisibilityPressureHumidity
15-Apr-2024 15:00Clear Sky5°C4 mph, W0%10000m1016hPa81%
15-Apr-2024 18:00Clear Sky8°C7 mph, W0%10000m1017hPa66%
15-Apr-2024 21:00Clear Sky14°C7 mph, W0%10000m1016hPa43%
16-Apr-2024 00:00Clear Sky20°C7 mph, NW2%10000m1014hPa18%
16-Apr-2024 03:00Overcast Clouds19°C4 mph, NW94%10000m1014hPa20%
16-Apr-2024 06:00Overcast Clouds17°C9 mph, W87%10000m1016hPa27%
16-Apr-2024 09:00Scattered Clouds15°C4 mph, W49%10000m1016hPa35%
16-Apr-2024 12:00Broken Clouds14°C4 mph, NW55%10000m1016hPa39%
16-Apr-2024 15:00Scattered Clouds17°C4 mph, NW36%10000m1018hPa32%
16-Apr-2024 18:00Few Clouds21°C2 mph, E18%10000m1017hPa21%
16-Apr-2024 21:00Clear Sky24°C2 mph, SE0%10000m1014hPa15%
17-Apr-2024 00:00Clear Sky25°C2 mph, SW0%10000m1012hPa13%
17-Apr-2024 03:00Clear Sky24°C7 mph, SW0%10000m1013hPa17%
17-Apr-2024 06:00Clear Sky21°C7 mph, W0%10000m1014hPa21%
17-Apr-2024 09:00Clear Sky19°C7 mph, W0%10000m1013hPa31%
17-Apr-2024 12:00Clear Sky17°C7 mph, W0%10000m1014hPa39%
17-Apr-2024 15:00Clear Sky18°C4 mph, W5%10000m1014hPa32%
17-Apr-2024 18:00Few Clouds24°C7 mph, SW20%10000m1013hPa21%
17-Apr-2024 21:00Overcast Clouds27°C13 mph, SW94%10000m1011hPa15%
18-Apr-2024 00:00Broken Clouds28°C13 mph, SW80%10000m1009hPa14%
18-Apr-2024 03:00Broken Clouds25°C18 mph, SW73%10000m1010hPa23%
18-Apr-2024 06:00Overcast Clouds21°C13 mph, SW86%10000m1011hPa33%
18-Apr-2024 09:00Overcast Clouds19°C11 mph, W89%10000m1011hPa37%
18-Apr-2024 12:00Broken Clouds17°C7 mph, W75%10000m1011hPa44%
18-Apr-2024 15:00Overcast Clouds18°C7 mph, W99%10000m1012hPa37%
18-Apr-2024 18:00Overcast Clouds24°C9 mph, SW99%10000m1011hPa19%
18-Apr-2024 21:00Overcast Clouds27°C13 mph, SW100%10000m1009hPa14%
19-Apr-2024 00:00Overcast Clouds27°C16 mph, SW100%10000m1007hPa12%
19-Apr-2024 03:00Broken Clouds23°C18 mph, SW53%10000m1008hPa27%
19-Apr-2024 06:00Scattered Clouds19°C18 mph, W47%10000m1009hPa38%
19-Apr-2024 09:00Broken Clouds17°C13 mph, W81%10000m1008hPa47%
19-Apr-2024 12:00Broken Clouds16°C9 mph, W53%10000m1008hPa53%
19-Apr-2024 15:00Clear Sky17°C13 mph, W3%10000m1010hPa49%
19-Apr-2024 18:00Clear Sky22°C16 mph, W3%10000m1009hPa34%
19-Apr-2024 21:00Clear Sky26°C9 mph, SW0%10000m1007hPa24%
20-Apr-2024 00:00Clear Sky27°C20 mph, SW0%10000m1005hPa24%
20-Apr-2024 03:00Clear Sky23°C22 mph, SW0%10000m1007hPa37%
20-Apr-2024 06:00Few Clouds19°C18 mph, W21%10000m1009hPa52%
20-Apr-2024 09:00Scattered Clouds18°C11 mph, W38%10000m1009hPa59%
20-Apr-2024 12:00Few Clouds16°C7 mph, W20%10000m1011hPa64%